sensor_id;sensor_type;location;lat;lon;timestamp;pressure;altitude;pressure_sealevel;temperature;humidity
10732;BME280;74907;42.812;23.216;2023-12-20T00:01:55;95889.19;;;-2.25;94.88
10732;BME280;74907;42.812;23.216;2023-12-20T00:04:21;95895.09;;;-2.19;95.04
10732;BME280;74907;42.812;23.216;2023-12-20T00:06:48;95900.19;;;-2.21;94.67
10732;BME280;74907;42.812;23.216;2023-12-20T00:09:15;95890.00;;;-2.21;94.51
10732;BME280;74907;42.812;23.216;2023-12-20T00:11:44;95896.75;;;-2.14;94.96
10732;BME280;74907;42.812;23.216;2023-12-20T00:14:11;95891.63;;;-2.08;94.97
10732;BME280;74907;42.812;23.216;2023-12-20T00:16:38;95882.25;;;-2.12;94.95
10732;BME280;74907;42.812;23.216;2023-12-20T00:19:05;95881.41;;;-2.06;94.78
10732;BME280;74907;42.812;23.216;2023-12-20T00:21:33;95884.75;;;-2.03;94.50
10732;BME280;74907;42.812;23.216;2023-12-20T00:23:59;95873.66;;;-1.97;94.65
10732;BME280;74907;42.812;23.216;2023-12-20T00:26:27;95864.38;;;-2.06;94.47
10732;BME280;74907;42.812;23.216;2023-12-20T00:28:55;95861.91;;;-2.16;94.22
10732;BME280;74907;42.812;23.216;2023-12-20T00:31:22;95839.84;;;-2.22;94.30
10732;BME280;74907;42.812;23.216;2023-12-20T00:33:49;95863.56;;;-2.12;94.06
10732;BME280;74907;42.812;23.216;2023-12-20T00:36:16;95859.41;;;-2.21;93.84
10732;BME280;74907;42.812;23.216;2023-12-20T00:38:43;95845.00;;;-2.27;94.34
10732;BME280;74907;42.812;23.216;2023-12-20T00:41:10;95866.22;;;-2.23;94.10
10732;BME280;74907;42.812;23.216;2023-12-20T00:43:37;95863.66;;;-2.23;94.22
10732;BME280;74907;42.812;23.216;2023-12-20T00:46:05;95860.28;;;-2.25;94.62
10732;BME280;74907;42.812;23.216;2023-12-20T00:48:32;95848.41;;;-2.29;94.13
10732;BME280;74907;42.812;23.216;2023-12-20T00:50:59;95854.38;;;-2.29;94.21
10732;BME280;74907;42.812;23.216;2023-12-20T00:53:26;95845.06;;;-2.33;94.22
10732;BME280;74907;42.812;23.216;2023-12-20T00:55:53;95848.50;;;-2.37;93.99
10732;BME280;74907;42.812;23.216;2023-12-20T00:58:19;95854.44;;;-2.38;94.07
10732;BME280;74907;42.812;23.216;2023-12-20T01:00:46;95833.34;;;-2.55;93.53
10732;BME280;74907;42.812;23.216;2023-12-20T01:03:15;95836.47;;;-2.24;94.27
10732;BME280;74907;42.812;23.216;2023-12-20T01:05:41;95836.41;;;-2.18;94.28
10732;BME280;74907;42.812;23.216;2023-12-20T01:08:08;95834.69;;;-2.14;93.20
10732;BME280;74907;42.812;23.216;2023-12-20T01:10:35;95820.19;;;-2.08;92.95
10732;BME280;74907;42.812;23.216;2023-12-20T01:13:02;95832.94;;;-2.06;92.58
10732;BME280;74907;42.812;23.216;2023-12-20T01:15:29;95811.66;;;-2.08;92.40
10732;BME280;74907;42.812;23.216;2023-12-20T01:17:56;95828.66;;;-2.03;91.61
10732;BME280;74907;42.812;23.216;2023-12-20T01:20:26;95821.16;;;-2.23;91.28
10732;BME280;74907;42.812;23.216;2023-12-20T01:22:53;95796.75;;;-2.46;91.41
10732;BME280;74907;42.812;23.216;2023-12-20T01:25:20;95817.91;;;-2.37;91.59
10732;BME280;74907;42.812;23.216;2023-12-20T01:27:47;95817.09;;;-2.43;91.63
10732;BME280;74907;42.812;23.216;2023-12-20T01:30:14;95818.00;;;-2.49;92.37
10732;BME280;74907;42.812;23.216;2023-12-20T01:32:41;95784.97;;;-2.64;92.43
10732;BME280;74907;42.812;23.216;2023-12-20T01:35:08;95817.97;;;-2.44;92.47
10732;BME280;74907;42.812;23.216;2023-12-20T01:37:36;95802.66;;;-2.41;92.81
10732;BME280;74907;42.812;23.216;2023-12-20T01:40:04;95801.75;;;-2.37;93.83
10732;BME280;74907;42.812;23.216;2023-12-20T01:42:31;95793.22;;;-2.32;94.66
10732;BME280;74907;42.812;23.216;2023-12-20T01:44:58;95793.16;;;-2.27;95.40
10732;BME280;74907;42.812;23.216;2023-12-20T01:47:25;95800.75;;;-2.21;96.12
10732;BME280;74907;42.812;23.216;2023-12-20T01:49:52;95788.84;;;-2.20;96.70
10732;BME280;74907;42.812;23.216;2023-12-20T01:52:22;95773.53;;;-2.20;97.53
10732;BME280;74907;42.812;23.216;2023-12-20T01:54:51;95780.31;;;-2.18;98.01
10732;BME280;74907;42.812;23.216;2023-12-20T01:57:20;95776.06;;;-2.19;98.76
10732;BME280;74907;42.812;23.216;2023-12-20T01:59:47;95774.34;;;-2.17;99.35
10732;BME280;74907;42.812;23.216;2023-12-20T02:02:14;95760.78;;;-2.20;99.64
10732;BME280;74907;42.812;23.216;2023-12-20T02:04:41;95778.53;;;-2.07;99.76
10732;BME280;74907;42.812;23.216;2023-12-20T02:07:08;95773.28;;;-1.93;100.00
10732;BME280;74907;42.812;23.216;2023-12-20T02:09:36;95768.28;;;-2.04;100.00
10732;BME280;74907;42.812;23.216;2023-12-20T02:12:05;95766.59;;;-2.03;100.00
10732;BME280;74907;42.812;23.216;2023-12-20T02:14:32;95759.78;;;-2.03;100.00
10732;BME280;74907;42.812;23.216;2023-12-20T02:16:59;95757.16;;;-1.97;100.00
10732;BME280;74907;42.812;23.216;2023-12-20T02:19:26;95762.91;;;-1.81;100.00
10732;BME280;74907;42.812;23.216;2023-12-20T02:22:07;95731.63;;;-1.95;100.00
10732;BME280;74907;42.812;23.216;2023-12-20T02:24:34;95729.59;;;-1.69;100.00
10732;BME280;74907;42.812;23.216;2023-12-20T02:27:01;95732.09;;;-1.66;100.00
10732;BME280;74907;42.812;23.216;2023-12-20T02:29:28;95741.38;;;-1.60;100.00
10732;BME280;74907;42.812;23.216;2023-12-20T02:31:55;95716.88;;;-1.72;100.00
10732;BME280;74907;42.812;23.216;2023-12-20T02:34:21;95730.28;;;-1.58;100.00
10732;BME280;74907;42.812;23.216;2023-12-20T02:36:48;95718.63;;;-1.77;100.00
10732;BME280;74907;42.812;23.216;2023-12-20T02:39:26;95743.06;;;-1.56;100.00
10732;BME280;74907;42.812;23.216;2023-12-20T02:41:53;95732.13;;;-1.67;100.00
10732;BME280;74907;42.812;23.216;2023-12-20T02:44:27;95717.81;;;-1.79;100.00
10732;BME280;74907;42.812;23.216;2023-12-20T02:46:54;95724.59;;;-1.78;100.00
10732;BME280;74907;42.812;23.216;2023-12-20T02:49:21;95725.38;;;-1.73;100.00
10732;BME280;74907;42.812;23.216;2023-12-20T02:51:48;95725.38;;;-1.73;100.00
10732;BME280;74907;42.812;23.216;2023-12-20T02:54:15;95714.34;;;-1.75;100.00
10732;BME280;74907;42.812;23.216;2023-12-20T02:56:43;95723.69;;;-1.72;100.00
10732;BME280;74907;42.812;23.216;2023-12-20T02:59:10;95722.88;;;-1.76;100.00
10732;BME280;74907;42.812;23.216;2023-12-20T03:01:41;95725.41;;;-1.74;100.00
10732;BME280;74907;42.812;23.216;2023-12-20T03:04:08;95712.91;;;-1.94;100.00
10732;BME280;74907;42.812;23.216;2023-12-20T03:06:35;95724.66;;;-1.81;100.00
10732;BME280;74907;42.812;23.216;2023-12-20T03:09:02;95726.41;;;-1.86;100.00
10732;BME280;74907;42.812;23.216;2023-12-20T03:11:30;95715.50;;;-1.99;100.00
10732;BME280;74907;42.812;23.216;2023-12-20T03:13:58;95720.53;;;-1.91;100.00
10732;BME280;74907;42.812;23.216;2023-12-20T03:16:25;95696.91;;;-2.07;100.00
10732;BME280;74907;42.812;23.216;2023-12-20T03:18:52;95714.00;;;-2.16;100.00
10732;BME280;74907;42.812;23.216;2023-12-20T03:21:19;95720.78;;;-2.15;100.00
10732;BME280;74907;42.812;23.216;2023-12-20T03:23:46;95684.38;;;-2.28;100.00
10732;BME280;74907;42.812;23.216;2023-12-20T03:26:13;95711.50;;;-2.21;100.00
10732;BME280;74907;42.812;23.216;2023-12-20T03:28:39;95703.81;;;-2.18;100.00
10732;BME280;74907;42.812;23.216;2023-12-20T03:31:09;95701.19;;;-2.12;100.00
10732;BME280;74907;42.812;23.216;2023-12-20T03:33:40;95709.66;;;-2.05;100.00
10732;BME280;74907;42.812;23.216;2023-12-20T03:36:07;95684.28;;;-2.20;100.00
10732;BME280;74907;42.812;23.216;2023-12-20T03:38:34;95706.25;;;-2.09;100.00
10732;BME280;74907;42.812;23.216;2023-12-20T03:41:01;95695.22;;;-2.09;100.00
10732;BME280;74907;42.812;23.216;2023-12-20T03:43:28;95699.56;;;-2.17;100.00
10732;BME280;74907;42.812;23.216;2023-12-20T03:46:10;95707.97;;;-2.08;100.00
10732;BME280;74907;42.812;23.216;2023-12-20T03:48:37;95690.13;;;-2.11;100.00
10732;BME280;74907;42.812;23.216;2023-12-20T03:51:04;95691.78;;;-2.05;100.00
10732;BME280;74907;42.812;23.216;2023-12-20T03:53:31;95695.19;;;-2.05;100.00
10732;BME280;74907;42.812;23.216;2023-12-20T03:55:58;95695.91;;;-1.95;100.00
10732;BME280;74907;42.812;23.216;2023-12-20T03:58:25;95692.53;;;-1.96;100.00
10732;BME280;74907;42.812;23.216;2023-12-20T04:00:52;95695.69;;;-1.78;100.00
10732;BME280;74907;42.812;23.216;2023-12-20T04:03:20;95694.81;;;-1.76;100.00
10732;BME280;74907;42.812;23.216;2023-12-20T04:05:47;95693.28;;;-1.89;100.00
10732;BME280;74907;42.812;23.216;2023-12-20T04:08:18;95689.13;;;-1.96;100.00
10732;BME280;74907;42.812;23.216;2023-12-20T04:10:45;95668.09;;;-2.16;100.00
10732;BME280;74907;42.812;23.216;2023-12-20T04:13:12;95679.94;;;-2.12;100.00
10732;BME280;74907;42.812;23.216;2023-12-20T04:15:39;95671.38;;;-2.08;100.00
10732;BME280;74907;42.812;23.216;2023-12-20T04:18:06;95651.19;;;-2.25;100.00
10732;BME280;74907;42.812;23.216;2023-12-20T04:20:34;95673.94;;;-2.08;100.00
10732;BME280;74907;42.812;23.216;2023-12-20T04:23:01;95671.41;;;-2.10;100.00
10732;BME280;74907;42.812;23.216;2023-12-20T04:25:28;95652.16;;;-2.34;100.00
10732;BME280;74907;42.812;23.216;2023-12-20T04:27:55;95669.81;;;-2.17;100.00
10732;BME280;74907;42.812;23.216;2023-12-20T04:30:21;95672.41;;;-2.22;100.00
10732;BME280;74907;42.812;23.216;2023-12-20T04:32:48;95668.97;;;-2.19;100.00
10732;BME280;74907;42.812;23.216;2023-12-20T04:35:15;95658.81;;;-2.22;100.00
10732;BME280;74907;42.812;23.216;2023-12-20T04:37:43;95665.56;;;-2.18;100.00
10732;BME280;74907;42.812;23.216;2023-12-20T04:40:10;95670.63;;;-2.16;100.00
10732;BME280;74907;42.812;23.216;2023-12-20T04:42:37;95654.56;;;-2.23;100.00
10732;BME280;74907;42.812;23.216;2023-12-20T04:45:05;95665.66;;;-2.27;100.00
10732;BME280;74907;42.812;23.216;2023-12-20T04:47:32;95660.53;;;-2.24;100.00
10732;BME280;74907;42.812;23.216;2023-12-20T04:49:59;95647.00;;;-2.31;100.00
10732;BME280;74907;42.812;23.216;2023-12-20T04:52:25;95633.56;;;-2.43;100.00
10732;BME280;74907;42.812;23.216;2023-12-20T04:54:55;95653.81;;;-2.31;100.00
10732;BME280;74907;42.812;23.216;2023-12-20T04:57:21;95658.81;;;-2.24;100.00
10732;BME280;74907;42.812;23.216;2023-12-20T04:59:48;95652.81;;;-2.18;100.00
10732;BME280;74907;42.812;23.216;2023-12-20T05:02:15;95649.44;;;-2.20;100.00
10732;BME280;74907;42.812;23.216;2023-12-20T05:04:42;95641.88;;;-2.28;100.00
10732;BME280;74907;42.812;23.216;2023-12-20T05:07:09;95655.44;;;-2.24;100.00
10732;BME280;74907;42.812;23.216;2023-12-20T05:09:36;95653.75;;;-2.25;100.00
10732;BME280;74907;42.812;23.216;2023-12-20T05:12:05;95635.13;;;-2.30;100.00
10732;BME280;74907;42.812;23.216;2023-12-20T05:14:32;95635.13;;;-2.30;100.00
10732;BME280;74907;42.812;23.216;2023-12-20T05:16:59;95625.00;;;-2.38;100.00
10732;BME280;74907;42.812;23.216;2023-12-20T05:19:26;95634.25;;;-2.29;100.00
10732;BME280;74907;42.812;23.216;2023-12-20T05:21:53;95637.66;;;-2.29;100.00
10732;BME280;74907;42.812;23.216;2023-12-20T05:24:20;95635.94;;;-2.28;100.00
10732;BME280;74907;42.812;23.216;2023-12-20T05:26:47;95635.03;;;-2.24;100.00
10732;BME280;74907;42.812;23.216;2023-12-20T05:29:15;95643.56;;;-2.27;100.00
10732;BME280;74907;42.812;23.216;2023-12-20T05:31:42;95630.88;;;-2.31;100.00
10732;BME280;74907;42.812;23.216;2023-12-20T05:34:09;95637.56;;;-2.23;100.00
10732;BME280;74907;42.812;23.216;2023-12-20T05:36:36;95624.88;;;-2.27;100.00
10732;BME280;74907;42.812;23.216;2023-12-20T05:39:04;95627.50;;;-2.33;100.00
10732;BME280;74907;42.812;23.216;2023-12-20T05:41:33;95618.22;;;-2.39;100.00
10732;BME280;74907;42.812;23.216;2023-12-20T05:44:00;95614.78;;;-2.36;100.00
10732;BME280;74907;42.812;23.216;2023-12-20T05:46:29;95614.75;;;-2.32;100.00
10732;BME280;74907;42.812;23.216;2023-12-20T05:48:55;95614.75;;;-2.33;100.00
10732;BME280;74907;42.812;23.216;2023-12-20T05:51:22;95605.25;;;-2.20;100.00
10732;BME280;74907;42.812;23.216;2023-12-20T05:53:49;95605.22;;;-2.19;100.00
10732;BME280;74907;42.812;23.216;2023-12-20T05:56:16;95602.66;;;-2.17;100.00
10732;BME280;74907;42.812;23.216;2023-12-20T05:58:43;95614.63;;;-2.23;100.00
10732;BME280;74907;42.812;23.216;2023-12-20T06:01:10;95608.66;;;-2.22;100.00
10732;BME280;74907;42.812;23.216;2023-12-20T06:03:41;95608.63;;;-2.18;100.00
10732;BME280;74907;42.812;23.216;2023-12-20T06:06:08;95603.56;;;-2.22;100.00
10732;BME280;74907;42.812;23.216;2023-12-20T06:08:41;95606.81;;;-2.12;100.00
10732;BME280;74907;42.812;23.216;2023-12-20T06:11:24;95580.63;;;-2.23;100.00
10732;BME280;74907;42.812;23.216;2023-12-20T06:13:51;95599.97;;;-2.08;100.00
10732;BME280;74907;42.812;23.216;2023-12-20T06:16:18;95597.50;;;-2.13;100.00
10732;BME280;74907;42.812;23.216;2023-12-20T06:18:47;95588.25;;;-2.20;100.00
10732;BME280;74907;42.812;23.216;2023-12-20T06:21:14;95602.56;;;-2.11;100.00
10732;BME280;74907;42.812;23.216;2023-12-20T06:23:40;95574.59;;;-2.17;100.00
10732;BME280;74907;42.812;23.216;2023-12-20T06:26:07;95598.28;;;-2.06;100.00
10732;BME280;74907;42.812;23.216;2023-12-20T06:28:34;95597.31;;;-1.98;100.00
10732;BME280;74907;42.812;23.216;2023-12-20T06:31:04;95600.56;;;-1.88;100.00
10732;BME280;74907;42.812;23.216;2023-12-20T06:33:31;95592.13;;;-1.93;100.00
10732;BME280;74907;42.812;23.216;2023-12-20T06:36:00;95600.56;;;-1.88;100.00
10732;BME280;74907;42.812;23.216;2023-12-20T06:38:27;95592.13;;;-1.92;100.00
10732;BME280;74907;42.812;23.216;2023-12-20T06:40:54;95602.22;;;-1.84;100.00
10732;BME280;74907;42.812;23.216;2023-12-20T06:43:22;95599.59;;;-1.79;100.00
10732;BME280;74907;42.812;23.216;2023-12-20T06:45:49;95591.84;;;-1.73;100.00
10732;BME280;74907;42.812;23.216;2023-12-20T06:48:17;95584.88;;;-1.62;100.00
10732;BME280;74907;42.812;23.216;2023-12-20T06:50:44;95583.94;;;-1.55;100.00
10732;BME280;74907;42.812;23.216;2023-12-20T06:53:12;95580.44;;;-1.49;100.00
10732;BME280;74907;42.812;23.216;2023-12-20T06:55:39;95584.69;;;-1.50;100.00
10732;BME280;74907;42.812;23.216;2023-12-20T06:58:06;95562.66;;;-1.55;100.00
10732;BME280;74907;42.812;23.216;2023-12-20T07:00:33;95575.44;;;-1.55;100.00
10732;BME280;74907;42.812;23.216;2023-12-20T07:03:00;95573.44;;;-1.38;100.00
10732;BME280;74907;42.812;23.216;2023-12-20T07:05:27;95565.16;;;-1.51;100.00
10732;BME280;74907;42.812;23.216;2023-12-20T07:07:54;95577.78;;;-1.43;100.00
10732;BME280;74907;42.812;23.216;2023-12-20T07:10:22;95576.91;;;-1.41;100.00
10732;BME280;74907;42.812;23.216;2023-12-20T07:12:49;95573.63;;;-1.49;100.00
10732;BME280;74907;42.812;23.216;2023-12-20T07:15:17;95570.19;;;-1.48;100.00
10732;BME280;74907;42.812;23.216;2023-12-20T07:17:44;95567.66;;;-1.48;100.00
10732;BME280;74907;42.812;23.216;2023-12-20T07:20:11;95560.97;;;-1.58;100.00
10732;BME280;74907;42.812;23.216;2023-12-20T07:22:38;95575.34;;;-1.49;100.00
10732;BME280;74907;42.812;23.216;2023-12-20T07:25:06;95571.00;;;-1.44;100.00
10732;BME280;74907;42.812;23.216;2023-12-20T07:27:34;95553.25;;;-1.52;100.00
10732;BME280;74907;42.812;23.216;2023-12-20T07:30:01;95564.13;;;-1.41;100.00
10732;BME280;74907;42.812;23.216;2023-12-20T07:32:28;95556.38;;;-1.36;100.00
10732;BME280;74907;42.812;23.216;2023-12-20T07:34:55;95551.34;;;-1.39;100.00
10732;BME280;74907;42.812;23.216;2023-12-20T07:37:22;95553.00;;;-1.38;100.00
10732;BME280;74907;42.812;23.216;2023-12-20T07:39:49;95542.03;;;-1.43;100.00
10732;BME280;74907;42.812;23.216;2023-12-20T07:42:16;95541.88;;;-1.34;100.00
10732;BME280;74907;42.812;23.216;2023-12-20T07:44:45;95549.44;;;-1.28;100.00
10732;BME280;74907;42.812;23.216;2023-12-20T07:47:11;95545.16;;;-1.28;100.00
10732;BME280;74907;42.812;23.216;2023-12-20T07:49:41;95533.28;;;-1.29;100.00
10732;BME280;74907;42.812;23.216;2023-12-20T07:52:07;95545.00;;;-1.18;100.00
10732;BME280;74907;42.812;23.216;2023-12-20T07:54:34;95536.53;;;-1.20;100.00
10732;BME280;74907;42.812;23.216;2023-12-20T07:57:01;95538.97;;;-1.14;100.00
10732;BME280;74907;42.812;23.216;2023-12-20T07:59:28;95539.03;;;-1.17;100.00
10732;BME280;74907;42.812;23.216;2023-12-20T08:01:56;95541.63;;;-1.20;100.00
10732;BME280;74907;42.812;23.216;2023-12-20T08:04:23;95538.22;;;-1.19;100.00
10732;BME280;74907;42.812;23.216;2023-12-20T08:06:50;95541.56;;;-1.16;100.00
10732;BME280;74907;42.812;23.216;2023-12-20T08:09:17;95529.44;;;-1.03;100.00
10732;BME280;74907;42.812;23.216;2023-12-20T08:11:45;95529.19;;;-0.91;100.00
10732;BME280;74907;42.812;23.216;2023-12-20T08:14:12;95531.34;;;-0.71;100.00
10732;BME280;74907;42.812;23.216;2023-12-20T08:16:39;95537.25;;;-0.68;100.00
10732;BME280;74907;42.812;23.216;2023-12-20T08:19:07;95533.09;;;-0.73;100.00
10732;BME280;74907;42.812;23.216;2023-12-20T08:21:34;95523.38;;;-0.56;100.00
10732;BME280;74907;42.812;23.216;2023-12-20T08:24:01;95506.03;;;-0.83;100.00
10732;BME280;74907;42.812;23.216;2023-12-20T08:26:28;95518.22;;;-0.54;100.00
10732;BME280;74907;42.812;23.216;2023-12-20T08:28:55;95495.94;;;-0.46;100.00
10732;BME280;74907;42.812;23.216;2023-12-20T08:31:22;95492.56;;;-0.48;100.00
10732;BME280;74907;42.812;23.216;2023-12-20T08:33:49;95491.84;;;-0.56;100.00
10732;BME280;74907;42.812;23.216;2023-12-20T08:36:19;95503.47;;;-0.82;100.00
10732;BME280;74907;42.812;23.216;2023-12-20T08:38:46;95499.13;;;-0.78;100.00
10732;BME280;74907;42.812;23.216;2023-12-20T08:41:13;95503.97;;;-0.65;100.00
10732;BME280;74907;42.812;23.216;2023-12-20T08:43:40;95492.56;;;-0.48;100.00
10732;BME280;74907;42.812;23.216;2023-12-20T08:46:07;95488.63;;;-0.24;100.00
10732;BME280;74907;42.812;23.216;2023-12-20T08:48:35;95473.66;;;-0.04;100.00
10732;BME280;74907;42.812;23.216;2023-12-20T08:51:02;95466.81;;;-0.04;100.00
10732;BME280;74907;42.812;23.216;2023-12-20T08:53:31;95468.13;;;0.14;100.00
10732;BME280;74907;42.812;23.216;2023-12-20T08:55:59;95441.88;;;0.06;100.00
10732;BME280;74907;42.812;23.216;2023-12-20T08:58:27;95454.78;;;0.02;100.00
10732;BME280;74907;42.812;23.216;2023-12-20T09:00:53;95463.63;;;0.24;100.00
10732;BME280;74907;42.812;23.216;2023-12-20T09:03:20;95454.00;;;0.34;98.20
10732;BME280;74907;42.812;23.216;2023-12-20T09:05:47;95456.59;;;0.32;97.74
10732;BME280;74907;42.812;23.216;2023-12-20T09:08:14;95445.59;;;0.28;95.09
10732;BME280;74907;42.812;23.216;2023-12-20T09:10:42;95439.81;;;0.20;96.08
10732;BME280;74907;42.812;23.216;2023-12-20T09:13:10;95437.94;;;0.27;95.50
10732;BME280;74907;42.812;23.216;2023-12-20T09:15:36;95437.22;;;0.22;96.60
10732;BME280;74907;42.812;23.216;2023-12-20T09:18:04;95413.56;;;0.12;96.78
10732;BME280;74907;42.812;23.216;2023-12-20T09:20:31;95421.19;;;0.15;96.83
10732;BME280;74907;42.812;23.216;2023-12-20T09:22:58;95413.47;;;0.17;96.79
10732;BME280;74907;42.812;23.216;2023-12-20T09:25:25;95414.28;;;0.17;96.76
10732;BME280;74907;42.812;23.216;2023-12-20T09:27:53;95401.47;;;0.19;96.47
10732;BME280;74907;42.812;23.216;2023-12-20T09:30:21;95394.09;;;0.07;95.31
10732;BME280;74907;42.812;23.216;2023-12-20T09:32:47;95389.38;;;-0.10;95.88
10732;BME280;74907;42.812;23.216;2023-12-20T09:35:14;95382.19;;;-0.30;96.08
10732;BME280;74907;42.812;23.216;2023-12-20T09:37:42;95379.09;;;-0.44;96.63
10732;BME280;74907;42.812;23.216;2023-12-20T09:40:12;95379.97;;;-0.45;97.07
10732;BME280;74907;42.812;23.216;2023-12-20T09:42:46;95378.75;;;-0.29;97.19
10732;BME280;74907;42.812;23.216;2023-12-20T09:45:19;95363.41;;;-0.66;97.72
10732;BME280;74907;42.812;23.216;2023-12-20T09:47:48;95363.41;;;-0.29;98.14
10732;BME280;74907;42.812;23.216;2023-12-20T09:50:17;95374.31;;;-0.22;98.45
10732;BME280;74907;42.812;23.216;2023-12-20T09:52:46;95360.78;;;-0.27;98.81
10732;BME280;74907;42.812;23.216;2023-12-20T09:55:15;95359.22;;;0.03;98.65
10732;BME280;74907;42.812;23.216;2023-12-20T09:57:43;95355.88;;;0.01;98.69
10732;BME280;74907;42.812;23.216;2023-12-20T10:00:11;95323.56;;;-0.05;98.35
10732;BME280;74907;42.812;23.216;2023-12-20T10:02:56;95334.19;;;0.14;98.96
10732;BME280;74907;42.812;23.216;2023-12-20T10:05:27;95319.38;;;0.25;99.20
10732;BME280;74907;42.812;23.216;2023-12-20T10:07:54;95322.28;;;0.44;98.86
10732;BME280;74907;42.812;23.216;2023-12-20T10:10:22;95301.00;;;0.42;98.05
10732;BME280;74907;42.812;23.216;2023-12-20T10:13:05;95309.19;;;0.54;97.17
10732;BME280;74907;42.812;23.216;2023-12-20T10:15:32;95305.75;;;0.55;96.28
10732;BME280;74907;42.812;23.216;2023-12-20T10:18:01;95301.56;;;0.53;96.36
10732;BME280;74907;42.812;23.216;2023-12-20T10:20:28;95302.22;;;0.59;95.64
10732;BME280;74907;42.812;23.216;2023-12-20T10:22:56;95295.06;;;0.71;95.49
10732;BME280;74907;42.812;23.216;2023-12-20T10:25:23;95292.91;;;0.86;95.85
10732;BME280;74907;42.812;23.216;2023-12-20T10:28:08;95277.09;;;1.00;95.62
10732;BME280;74907;42.812;23.216;2023-12-20T10:30:36;95271.84;;;1.33;94.91
10732;BME280;74907;42.812;23.216;2023-12-20T10:33:05;95272.91;;;1.52;93.43
10732;BME280;74907;42.812;23.216;2023-12-20T10:35:32;95267.50;;;1.61;93.17
10732;BME280;74907;42.812;23.216;2023-12-20T10:38:02;95268.84;;;1.73;93.22
10732;BME280;74907;42.812;23.216;2023-12-20T10:40:30;95244.47;;;1.84;92.55
10732;BME280;74907;42.812;23.216;2023-12-20T10:42:58;95257.06;;;1.92;91.30
10732;BME280;74907;42.812;23.216;2023-12-20T10:45:26;95225.31;;;1.95;90.43
10732;BME280;74907;42.812;23.216;2023-12-20T10:47:53;95253.88;;;2.10;89.28
10732;BME280;74907;42.812;23.216;2023-12-20T10:50:22;95248.25;;;1.99;87.74
10732;BME280;74907;42.812;23.216;2023-12-20T10:52:50;95240.59;;;1.98;88.61
10732;BME280;74907;42.812;23.216;2023-12-20T10:55:21;95230.06;;;1.80;88.90
10732;BME280;74907;42.812;23.216;2023-12-20T10:57:49;95219.44;;;1.66;88.99
10732;BME280;74907;42.812;23.216;2023-12-20T11:00:18;95219.44;;;1.66;89.16
10732;BME280;74907;42.812;23.216;2023-12-20T11:02:45;95222.13;;;1.88;89.17
10732;BME280;74907;42.812;23.216;2023-12-20T11:05:27;95221.91;;;1.69;89.76
10732;BME280;74907;42.812;23.216;2023-12-20T11:08:00;95218.91;;;1.56;89.30
10732;BME280;74907;42.812;23.216;2023-12-20T11:10:31;95214.81;;;1.51;90.57
10732;BME280;74907;42.812;23.216;2023-12-20T11:13:06;95200.41;;;1.47;90.93
10732;BME280;74907;42.812;23.216;2023-12-20T11:15:36;95201.34;;;1.71;90.88
10732;BME280;74907;42.812;23.216;2023-12-20T11:18:04;95187.19;;;1.59;89.72
10732;BME280;74907;42.812;23.216;2023-12-20T11:20:37;95186.00;;;1.69;89.57
10732;BME280;74907;42.812;23.216;2023-12-20T11:23:05;95190.81;;;1.52;89.48
10732;BME280;74907;42.812;23.216;2023-12-20T11:25:46;95187.47;;;1.50;90.77
10732;BME280;74907;42.812;23.216;2023-12-20T11:28:13;95175.16;;;1.61;91.06
10732;BME280;74907;42.812;23.216;2023-12-20T11:30:41;95167.75;;;1.77;90.35
10732;BME280;74907;42.812;23.216;2023-12-20T11:33:08;95153.03;;;1.82;89.84
10732;BME280;74907;42.812;23.216;2023-12-20T11:35:36;95156.09;;;1.92;89.04
10732;BME280;74907;42.812;23.216;2023-12-20T11:38:07;95156.59;;;1.53;90.54
10732;BME280;74907;42.812;23.216;2023-12-20T11:40:35;95154.25;;;1.47;90.80
10732;BME280;74907;42.812;23.216;2023-12-20T11:43:03;95140.63;;;1.70;90.01
10732;BME280;74907;42.812;23.216;2023-12-20T11:45:30;95135.22;;;1.77;89.92
10732;BME280;74907;42.812;23.216;2023-12-20T11:47:57;95140.06;;;1.62;89.23
10732;BME280;74907;42.812;23.216;2023-12-20T11:50:25;95127.41;;;1.57;89.31
10732;BME280;74907;42.812;23.216;2023-12-20T11:52:54;95115.03;;;1.43;89.91
10732;BME280;74907;42.812;23.216;2023-12-20T11:55:21;95118.13;;;1.53;90.71
10732;BME280;74907;42.812;23.216;2023-12-20T11:57:48;95110.78;;;1.42;90.19
10732;BME280;74907;42.812;23.216;2023-12-20T12:00:15;95086.19;;;1.37;90.63
10732;BME280;74907;42.812;23.216;2023-12-20T12:02:42;95085.59;;;1.04;90.51
10732;BME280;74907;42.812;23.216;2023-12-20T12:05:09;95091.66;;;1.01;92.91
10732;BME280;74907;42.812;23.216;2023-12-20T12:07:36;95098.97;;;1.13;92.70
10732;BME280;74907;42.812;23.216;2023-12-20T12:10:06;95087.16;;;1.09;93.63
10732;BME280;74907;42.812;23.216;2023-12-20T12:12:33;95082.53;;;0.94;94.15
10732;BME280;74907;42.812;23.216;2023-12-20T12:15:00;95073.13;;;1.19;93.84
10732;BME280;74907;42.812;23.216;2023-12-20T12:17:28;95072.56;;;1.11;94.34
10732;BME280;74907;42.812;23.216;2023-12-20T12:20:02;95084.97;;;0.97;94.38
10732;BME280;74907;42.812;23.216;2023-12-20T12:22:30;95069.81;;;0.91;95.41
10732;BME280;74907;42.812;23.216;2023-12-20T12:24:59;95060.69;;;1.09;95.41
10732;BME280;74907;42.812;23.216;2023-12-20T12:27:28;95065.88;;;1.07;95.07
10732;BME280;74907;42.812;23.216;2023-12-20T12:30:03;95067.84;;;1.24;95.35
10732;BME280;74907;42.812;23.216;2023-12-20T12:32:30;95062.66;;;1.25;94.80
10732;BME280;74907;42.812;23.216;2023-12-20T12:34:57;95053.31;;;1.24;95.14
10732;BME280;74907;42.812;23.216;2023-12-20T12:37:24;95044.47;;;1.08;94.84
10732;BME280;74907;42.812;23.216;2023-12-20T12:39:53;95059.69;;;1.13;95.36
10732;BME280;74907;42.812;23.216;2023-12-20T12:42:20;95058.97;;;1.09;94.91
10732;BME280;74907;42.812;23.216;2023-12-20T12:44:52;95060.88;;;1.27;95.78
10732;BME280;74907;42.812;23.216;2023-12-20T12:47:19;95042.41;;;1.18;95.17
10732;BME280;74907;42.812;23.216;2023-12-20T12:49:46;95053.53;;;1.42;94.46
10732;BME280;74907;42.812;23.216;2023-12-20T12:52:13;95027.50;;;1.29;94.58